Time;durP1;ratioP1;P1;durP2;ratioP2;P2;SDS_P1;SDS_P2;PMS_P1;PMS_P2;Temp;Humidity;BMP_temperature;BMP_pressure;BME280_temperature;BME280_humidity;BME280_pressure;Samples;Min_cycle;Max_cycle;Signal;HPM_P1;HPM_P2
2021/08/09 00:01:32;;;;;;;;;;;17.30;90.90;;;;;;4303837;33;43462;-81
2021/08/09 00:04:14;;;;;;;;;;;17.30;90.90;;;;;;4317106;33;44724;-81
2021/08/09 00:06:47;;;;;;;;;;;17.30;90.90;;;;;;4316949;33;43885;-81
2021/08/09 00:09:14;;;;;;;;;;;17.30;90.90;;;;;;4328093;33;43185;-84
2021/08/09 00:11:41;;;;;;;;;;;17.30;90.90;;;;;;4303759;33;43309;-82
2021/08/09 00:14:13;;;;;;;;;;;17.20;90.90;;;;;;4327277;33;44171;-81
2021/08/09 00:16:41;;;;;;;;;;;17.30;91.00;;;;;;4303286;33;43597;-82
2021/08/09 00:19:10;;;;;;;;;;;17.30;91.00;;;;;;4303350;33;43998;-83
2021/08/09 00:21:38;;;;;;;;;;;17.30;91.10;;;;;;4327357;33;42959;-85
2021/08/09 00:24:05;;;;;;;;;;;17.30;91.10;;;;;;4327845;33;44259;-81
2021/08/09 00:26:36;;;;;;;;;;;17.30;91.10;;;;;;4316888;33;43942;-82
2021/08/09 00:29:09;;;;;;;;;;;17.20;91.10;;;;;;4303767;33;44215;-81
2021/08/09 00:31:37;;;;;;;;;;;17.20;91.10;;;;;;4316653;33;45674;-81
2021/08/09 00:34:04;;;;;;;;;;;17.20;91.10;;;;;;4303714;33;43213;-81
2021/08/09 00:36:31;;;;;;;;;;;17.30;91.20;;;;;;4328449;33;20336;-81
2021/08/09 00:38:58;;;;;;;;;;;17.20;91.10;;;;;;4327609;33;43280;-80
2021/08/09 00:41:30;;;;;;;;;;;17.20;91.10;;;;;;4327316;33;43810;-81
2021/08/09 00:44:00;;;;;;;;;;;17.20;91.10;;;;;;4316358;33;43001;-81
2021/08/09 00:46:31;;;;;;;;;;;17.30;91.20;;;;;;4303711;33;43969;-81
2021/08/09 00:48:58;;;;;;;;;;;17.30;91.20;;;;;;4316399;33;44591;-81
2021/08/09 00:51:25;;;;;;;;;;;17.30;91.20;;;;;;4327359;33;43084;-81
2021/08/09 00:53:55;;;;;;;;;;;17.20;91.20;;;;;;4316234;33;44316;-81
2021/08/09 00:56:22;;;;;;;;;;;17.20;91.10;;;;;;4303283;33;42943;-81
2021/08/09 00:58:54;;;;;;;;;;;17.20;91.10;;;;;;4326388;33;43326;-81
2021/08/09 01:01:24;;;;;;;;;;;17.30;91.20;;;;;;4327037;33;44165;-81
2021/08/09 01:03:54;;;;;;;;;;;17.30;91.20;;;;;;4316027;33;43021;-81
2021/08/09 01:06:24;;;;;;;;;;;17.30;91.20;;;;;;4302952;33;43500;-81
2021/08/09 01:09:23;;;;;;;;;;;17.30;91.20;;;;;;4310384;33;43527;-81
2021/08/09 01:11:55;;;;;;;;;;;17.30;91.20;;;;;;4296682;33;46008;-81
2021/08/09 01:14:22;;;;;;;;;;;17.20;91.20;;;;;;4315680;33;42681;-81
2021/08/09 01:16:53;;;;;;;;;;;17.20;91.30;;;;;;4326763;33;44108;-80
2021/08/09 01:19:38;;;;;;;;;;;17.20;91.30;;;;;;4327488;33;44828;-81
2021/08/09 01:22:10;;;;;;;;;;;17.20;91.40;;;;;;4316135;33;43511;-80
2021/08/09 01:24:46;;;;;;;;;;;17.20;91.40;;;;;;4315645;33;44260;-81
2021/08/09 01:27:36;;;;;;;;;;;17.10;91.40;;;;;;4316130;33;44815;-81
2021/08/09 01:30:08;;;;;;;;;;;17.10;91.50;;;;;;4326924;33;43846;-81
2021/08/09 01:32:42;;;;;;;;;;;17.10;91.50;;;;;;4303086;33;43506;-81
2021/08/09 01:35:10;;;;;;;;;;;17.10;91.50;;;;;;4315740;33;42576;-81
2021/08/09 01:37:40;;;;;;;;;;;17.10;91.60;;;;;;4316606;33;20013;-81
2021/08/09 01:40:08;;;;;;;;;;;17.10;91.60;;;;;;4326585;33;44286;-81
2021/08/09 01:42:43;;;;;;;;;;;17.10;91.60;;;;;;4302709;33;42531;-82
2021/08/09 01:45:17;;;;;;;;;;;17.00;91.70;;;;;;4302408;33;43342;-81
2021/08/09 01:47:51;;;;;;;;;;;17.00;91.70;;;;;;4315838;33;45084;-81
2021/08/09 01:50:18;;;;;;;;;;;17.00;91.70;;;;;;4315560;33;46025;-81
2021/08/09 01:52:49;;;;;;;;;;;17.00;91.80;;;;;;4302568;33;44662;-81
2021/08/09 01:55:17;;;;;;;;;;;17.00;91.80;;;;;;4326934;33;44704;-81
2021/08/09 01:57:47;;;;;;;;;;;16.90;91.80;;;;;;4302655;33;43073;-81
2021/08/09 02:00:18;;;;;;;;;;;16.90;91.80;;;;;;4326498;33;42745;-84
2021/08/09 02:02:54;;;;;;;;;;;16.90;91.80;;;;;;4302798;33;42661;-80
2021/08/09 02:05:23;;;;;;;;;;;16.90;91.80;;;;;;4302790;33;43288;-81
2021/08/09 02:07:54;;;;;;;;;;;16.90;91.90;;;;;;4302162;33;44151;-81
2021/08/09 02:10:33;;;;;;;;;;;16.90;91.90;;;;;;4305155;33;43949;-81
2021/08/09 02:13:05;;;;;;;;;;;16.90;91.90;;;;;;4318594;33;44616;-81
2021/08/09 02:15:41;;;;;;;;;;;16.90;91.90;;;;;;4318403;33;42889;-83
2021/08/09 02:18:29;;;;;;;;;;;16.90;91.90;;;;;;4318489;33;43084;-83
2021/08/09 02:20:57;;;;;;;;;;;16.90;91.80;;;;;;4305319;33;44302;-81
2021/08/09 02:23:29;;;;;;;;;;;16.90;91.90;;;;;;4329521;33;43357;-84
2021/08/09 02:25:57;;;;;;;;;;;16.90;91.90;;;;;;4318536;33;45889;-81
2021/08/09 02:28:26;;;;;;;;;;;16.90;91.90;;;;;;4329203;33;44475;-82
2021/08/09 02:30:59;;;;;;;;;;;16.90;91.90;;;;;;4329061;33;43517;-82
2021/08/09 02:33:32;;;;;;;;;;;16.90;92.00;;;;;;4305209;33;46012;-84
2021/08/09 02:36:01;;;;;;;;;;;16.90;92.00;;;;;;4318274;33;43920;-81
2021/08/09 02:38:32;;;;;;;;;;;16.80;92.00;;;;;;4319133;33;20010;-81
2021/08/09 02:41:03;;;;;;;;;;;16.80;92.00;;;;;;4304894;33;42382;-81
2021/08/09 02:43:31;;;;;;;;;;;16.90;92.10;;;;;;4318143;33;44077;-81
2021/08/09 02:45:58;;;;;;;;;;;16.80;92.10;;;;;;4328739;33;43280;-83
2021/08/09 02:48:32;;;;;;;;;;;16.80;92.10;;;;;;4304816;33;42653;-81
2021/08/09 02:51:01;;;;;;;;;;;16.80;92.10;;;;;;4318020;33;44236;-81
2021/08/09 02:53:34;;;;;;;;;;;16.80;92.10;;;;;;4318245;33;42929;-81
2021/08/09 02:56:05;;;;;;;;;;;16.80;92.10;;;;;;4329080;33;44920;-81
2021/08/09 02:58:32;;;;;;;;;;;16.80;92.10;;;;;;4317483;33;43620;-83
2021/08/09 03:01:00;;;;;;;;;;;16.80;92.10;;;;;;4329067;33;44231;-81
2021/08/09 03:03:31;;;;;;;;;;;16.80;92.10;;;;;;4317353;33;43551;-81
2021/08/09 03:05:59;;;;;;;;;;;16.80;92.20;;;;;;4317996;33;44834;-81
2021/08/09 03:08:30;;;;;;;;;;;16.80;92.20;;;;;;4304597;33;44095;-81
2021/08/09 03:11:03;;;;;;;;;;;16.80;92.20;;;;;;4317808;33;44712;-82
2021/08/09 03:13:30;;;;;;;;;;;16.80;92.20;;;;;;4317335;33;43261;-81
2021/08/09 03:16:00;;;;;;;;;;;16.80;92.20;;;;;;4304276;33;43817;-82
2021/08/09 03:18:33;;;;;;;;;;;16.80;92.20;;;;;;4304235;33;44923;-81
2021/08/09 03:21:09;;;;;;;;;;;16.80;92.20;;;;;;4317206;33;42919;-81
2021/08/09 03:23:36;;;;;;;;;;;16.80;92.20;;;;;;4317635;33;44292;-81
2021/08/09 03:26:03;;;;;;;;;;;16.70;92.30;;;;;;4304086;33;43451;-80
2021/08/09 03:28:37;;;;;;;;;;;16.80;92.30;;;;;;4327758;33;42878;-81
2021/08/09 03:31:05;;;;;;;;;;;16.80;92.30;;;;;;4317362;33;43902;-83
2021/08/09 03:33:34;;;;;;;;;;;16.70;92.30;;;;;;4327913;33;43776;-81
2021/08/09 03:36:03;;;;;;;;;;;16.80;92.30;;;;;;4317371;33;43473;-81
2021/08/09 03:38:30;;;;;;;;;;;16.80;92.30;;;;;;4317263;33;43457;-81
2021/08/09 03:40:57;;;;;;;;;;;16.80;92.30;;;;;;4317621;33;43440;-82
2021/08/09 03:43:24;;;;;;;;;;;16.80;92.30;;;;;;4317509;33;43287;-81
2021/08/09 03:45:51;;;;;;;;;;;16.80;92.30;;;;;;4316905;33;43745;-80
2021/08/09 03:48:19;;;;;;;;;;;16.80;92.30;;;;;;4317118;33;43487;-80
2021/08/09 03:50:49;;;;;;;;;;;16.80;92.30;;;;;;4316758;33;42262;-80
2021/08/09 03:53:17;;;;;;;;;;;16.80;92.30;;;;;;4328255;33;44023;-82
2021/08/09 03:55:49;;;;;;;;;;;16.80;92.30;;;;;;4327852;33;45129;-80
2021/08/09 03:58:16;;;;;;;;;;;16.80;92.30;;;;;;4316782;33;44989;-81
2021/08/09 04:00:46;;;;;;;;;;;16.80;92.30;;;;;;4328075;33;43829;-81
2021/08/09 04:03:19;;;;;;;;;;;16.80;92.30;;;;;;4316811;33;42975;-80
2021/08/09 04:05:49;;;;;;;;;;;16.80;92.40;;;;;;4317374;33;44292;-81
2021/08/09 04:08:19;;;;;;;;;;;16.80;92.40;;;;;;4327832;33;43390;-81
2021/08/09 04:10:49;;;;;;;;;;;16.80;92.40;;;;;;4318256;33;20009;-84
2021/08/09 04:13:18;;;;;;;;;;;16.80;92.40;;;;;;4328017;33;43288;-81
2021/08/09 04:15:48;;;;;;;;;;;16.80;92.40;;;;;;4327705;33;43882;-80
2021/08/09 04:18:18;;;;;;;;;;;16.80;92.40;;;;;;4327434;33;43207;-80
2021/08/09 04:20:46;;;;;;;;;;;16.80;92.40;;;;;;4303670;33;44277;-81
2021/08/09 04:23:21;;;;;;;;;;;16.80;92.40;;;;;;4327412;33;43502;-82
2021/08/09 04:25:52;;;;;;;;;;;16.70;92.40;;;;;;4327878;33;45099;-85
2021/08/09 04:28:19;;;;;;;;;;;16.70;92.40;;;;;;4327607;33;43262;-83
2021/08/09 04:30:46;;;;;;;;;;;16.70;92.40;;;;;;4316339;33;43529;-83
2021/08/09 04:33:13;;;;;;;;;;;16.70;92.40;;;;;;4315968;33;44941;-81
2021/08/09 04:35:56;;;;;;;;;;;16.70;92.50;;;;;;4325929;33;43230;-81
2021/08/09 04:38:26;;;;;;;;;;;16.70;92.50;;;;;;4327432;33;44671;-80
2021/08/09 04:41:02;;;;;;;;;;;16.60;92.50;;;;;;4304090;33;20045;-82
2021/08/09 04:43:32;;;;;;;;;;;16.60;92.50;;;;;;4327242;33;43316;-81
2021/08/09 04:46:11;;;;;;;;;;;16.60;92.50;;;;;;4303772;33;42518;-80
2021/08/09 04:48:38;;;;;;;;;;;16.60;92.50;;;;;;4327583;33;44231;-80
2021/08/09 04:51:13;;;;;;;;;;;16.60;92.50;;;;;;4326806;33;43267;-81
2021/08/09 04:53:43;;;;;;;;;;;16.60;92.60;;;;;;4327569;33;43254;-81
2021/08/09 04:56:13;;;;;;;;;;;16.60;92.60;;;;;;4316078;33;42107;-80
2021/08/09 04:58:40;;;;;;;;;;;16.60;92.60;;;;;;4326916;33;44151;-81
2021/08/09 05:01:08;;;;;;;;;;;16.60;92.60;;;;;;4326968;33;43833;-83
2021/08/09 05:03:41;;;;;;;;;;;16.60;92.60;;;;;;4326815;33;43139;-81
2021/08/09 05:06:09;;;;;;;;;;;16.60;92.60;;;;;;4326927;33;43258;-81
2021/08/09 05:08:41;;;;;;;;;;;16.60;92.60;;;;;;4315991;33;43565;-84
2021/08/09 05:11:12;;;;;;;;;;;16.50;92.50;;;;;;4317236;33;20320;-80
2021/08/09 05:13:48;;;;;;;;;;;16.50;92.60;;;;;;4315793;33;43058;-80
2021/08/09 05:16:17;;;;;;;;;;;16.50;92.60;;;;;;4315690;33;43454;-80
2021/08/09 05:18:45;;;;;;;;;;;16.50;92.60;;;;;;4302628;33;42643;-84
2021/08/09 05:21:18;;;;;;;;;;;16.50;92.60;;;;;;4326655;33;45759;-81
2021/08/09 05:23:48;;;;;;;;;;;16.50;92.60;;;;;;4315906;33;44227;-80
2021/08/09 05:26:15;;;;;;;;;;;16.50;92.60;;;;;;4315913;33;43473;-81
2021/08/09 05:28:42;;;;;;;;;;;16.50;92.60;;;;;;4326476;33;46016;-84
2021/08/09 05:31:09;;;;;;;;;;;16.50;92.60;;;;;;4326588;33;44189;-83
2021/08/09 05:33:36;;;;;;;;;;;16.50;92.60;;;;;;4302677;33;43560;-82
2021/08/09 05:36:06;;;;;;;;;;;16.40;92.60;;;;;;4315731;33;43198;-80
2021/08/09 05:38:34;;;;;;;;;;;16.40;92.60;;;;;;4315806;33;42595;-81
2021/08/09 05:41:02;;;;;;;;;;;16.50;92.70;;;;;;4315910;33;44235;-84
2021/08/09 05:43:32;;;;;;;;;;;16.40;92.60;;;;;;4327153;33;43473;-84
2021/08/09 05:45:59;;;;;;;;;;;16.40;92.60;;;;;;4305939;33;43213;-81
2021/08/09 05:48:26;;;;;;;;;;;16.50;92.70;;;;;;4318575;33;43321;-81
2021/08/09 05:50:59;;;;;;;;;;;16.40;92.60;;;;;;4318683;33;43499;-80
2021/08/09 05:53:30;;;;;;;;;;;16.40;92.60;;;;;;4318925;33;43266;-80
2021/08/09 05:56:05;;;;;;;;;;;16.40;92.70;;;;;;4319006;33;44038;-82
2021/08/09 05:58:37;;;;;;;;;;;16.40;92.70;;;;;;4318505;33;43765;-81
2021/08/09 06:01:07;;;;;;;;;;;16.40;92.70;;;;;;4305318;33;43429;-81
2021/08/09 06:03:41;;;;;;;;;;;16.40;92.70;;;;;;4329519;33;43686;-81
2021/08/09 06:06:15;;;;;;;;;;;16.40;92.60;;;;;;4305889;33;43948;-80
2021/08/09 06:08:46;;;;;;;;;;;16.40;92.60;;;;;;4318042;33;44111;-81
2021/08/09 06:11:16;;;;;;;;;;;16.40;92.70;;;;;;4305521;33;43145;-85
2021/08/09 06:13:51;;;;;;;;;;;16.40;92.70;;;;;;4330537;33;20057;-81
2021/08/09 06:16:21;;;;;;;;;;;16.40;92.70;;;;;;4318270;33;43309;-83
2021/08/09 06:18:54;;;;;;;;;;;16.40;92.70;;;;;;4318560;33;44033;-83
2021/08/09 06:21:25;;;;;;;;;;;16.40;92.70;;;;;;4305577;33;43151;-80
2021/08/09 06:24:00;;;;;;;;;;;16.50;92.70;;;;;;4313218;33;43210;-81
2021/08/09 06:26:38;;;;;;;;;;;16.40;92.70;;;;;;4305252;33;44799;-84
2021/08/09 06:29:06;;;;;;;;;;;16.40;92.70;;;;;;4330046;33;44054;-81
2021/08/09 06:31:33;;;;;;;;;;;16.40;92.70;;;;;;4305304;33;42776;-82
2021/08/09 06:34:06;;;;;;;;;;;16.40;92.70;;;;;;4318343;33;44235;-81
2021/08/09 06:36:42;;;;;;;;;;;16.40;92.70;;;;;;4318348;33;45861;-82
2021/08/09 06:39:19;;;;;;;;;;;16.40;92.70;;;;;;4318097;33;42870;-85
2021/08/09 06:41:54;;;;;;;;;;;16.40;92.80;;;;;;4318304;33;43196;-81
2021/08/09 06:44:27;;;;;;;;;;;16.40;92.80;;;;;;4306090;33;20399;-81
2021/08/09 06:47:00;;;;;;;;;;;16.50;92.80;;;;;;4329509;33;44009;-83
2021/08/09 06:49:30;;;;;;;;;;;16.50;92.80;;;;;;4304891;33;44627;-81
2021/08/09 06:52:04;;;;;;;;;;;16.50;92.80;;;;;;4318168;33;44451;-84
2021/08/09 06:54:39;;;;;;;;;;;16.50;92.80;;;;;;4304984;33;44610;-82
2021/08/09 06:57:15;;;;;;;;;;;16.50;92.80;;;;;;4327746;33;44611;-84
2021/08/09 06:59:53;;;;;;;;;;;16.50;92.80;;;;;;4317943;33;44805;-83
2021/08/09 07:02:28;;;;;;;;;;;16.50;92.70;;;;;;4328504;33;44958;-84
2021/08/09 07:05:04;;;;;;;;;;;16.50;92.70;;;;;;4304562;33;44430;-83
2021/08/09 07:07:37;;;;;;;;;;;16.60;92.70;;;;;;4317827;33;45527;-82
2021/08/09 07:10:15;;;;;;;;;;;16.60;92.70;;;;;;4304789;33;44133;-83
2021/08/09 07:12:43;;;;;;;;;;;16.60;92.70;;;;;;4328501;33;43551;-83
2021/08/09 07:15:16;;;;;;;;;;;16.60;92.70;;;;;;4304840;33;43871;-85
2021/08/09 07:17:54;;;;;;;;;;;16.60;92.70;;;;;;4328459;33;44040;-83
2021/08/09 07:20:29;;;;;;;;;;;16.70;92.70;;;;;;4328304;33;44059;-85
2021/08/09 07:22:59;;;;;;;;;;;16.70;92.70;;;;;;4328637;33;45248;-82
2021/08/09 07:25:34;;;;;;;;;;;16.70;92.70;;;;;;4304601;33;44142;-82
2021/08/09 07:28:10;;;;;;;;;;;16.70;92.60;;;;;;4328994;33;45945;-84
2021/08/09 07:30:43;;;;;;;;;;;16.70;92.60;;;;;;4317361;33;43186;-83
2021/08/09 07:33:19;;;;;;;;;;;16.70;92.60;;;;;;4317768;33;44719;-87
2021/08/09 07:35:54;;;;;;;;;;;16.70;92.60;;;;;;4304232;33;44086;-87
2021/08/09 07:38:21;;;;;;;;;;;16.70;92.60;;;;;;4304470;33;43852;-84
2021/08/09 07:40:57;;;;;;;;;;;16.70;92.60;;;;;;4304174;33;44271;-85
2021/08/09 07:43:30;;;;;;;;;;;16.80;92.60;;;;;;4328460;33;42701;-86
2021/08/09 07:45:58;;;;;;;;;;;16.80;92.60;;;;;;4303734;33;44325;-84
2021/08/09 07:48:30;;;;;;;;;;;16.80;92.60;;;;;;4328392;33;44076;-83
2021/08/09 07:51:09;;;;;;;;;;;16.80;92.60;;;;;;4304437;33;44793;-83
2021/08/09 07:53:45;;;;;;;;;;;16.80;92.50;;;;;;4328359;33;43664;-85
2021/08/09 07:56:21;;;;;;;;;;;16.80;92.50;;;;;;4328436;33;45785;-86
2021/08/09 07:58:52;;;;;;;;;;;16.80;92.50;;;;;;4328270;33;44681;-85
2021/08/09 08:01:23;;;;;;;;;;;16.80;92.60;;;;;;4316952;33;45539;-87
2021/08/09 08:03:59;;;;;;;;;;;16.80;92.60;;;;;;4327893;33;42414;-82
2021/08/09 08:06:32;;;;;;;;;;;16.90;92.60;;;;;;4303966;33;45015;-82
2021/08/09 08:09:08;;;;;;;;;;;16.90;92.60;;;;;;4328044;33;43665;-88
2021/08/09 08:11:46;;;;;;;;;;;16.90;92.60;;;;;;4303987;33;45496;-86
2021/08/09 08:14:22;;;;;;;;;;;16.90;92.50;;;;;;4316998;33;45843;-84
2021/08/09 08:17:03;;;;;;;;;;;17.00;92.50;;;;;;4305317;33;20081;-83
2021/08/09 08:19:39;;;;;;;;;;;17.00;92.50;;;;;;4328252;33;44186;-84
2021/08/09 08:22:27;;;;;;;;;;;17.00;92.40;;;;;;4327472;33;45460;-88
2021/08/09 08:25:02;;;;;;;;;;;17.00;92.40;;;;;;4328526;33;28758;-83
2021/08/09 08:27:40;;;;;;;;;;;17.00;92.40;;;;;;4304133;33;45129;-87
2021/08/09 08:30:15;;;;;;;;;;;17.00;92.30;;;;;;4327706;33;43825;-88
2021/08/09 08:33:00;;;;;;;;;;;17.00;92.40;;;;;;4305227;33;44426;-90
2021/08/09 08:35:34;;;;;;;;;;;17.10;92.40;;;;;;4327968;33;45498;-81
2021/08/09 08:38:07;;;;;;;;;;;17.00;92.40;;;;;;4303952;33;44236;-84
2021/08/09 08:40:41;;;;;;;;;;;17.10;92.40;;;;;;4327658;33;42881;-87
2021/08/09 08:43:40;;;;;;;;;;;17.00;92.40;;;;;;4303886;33;44717;-89
2021/08/09 08:46:10;;;;;;;;;;;17.10;92.40;;;;;;4302968;33;43346;-85
2021/08/09 08:48:40;;;;;;;;;;;17.10;92.40;;;;;;4304427;33;19997;-86
2021/08/09 08:51:29;;;;;;;;;;;17.10;92.30;;;;;;4326706;33;44291;-82
2021/08/09 08:54:05;;;;;;;;;;;17.10;92.30;;;;;;4303389;33;46053;-88
2021/08/09 08:56:35;;;;;;;;;;;17.10;92.30;;;;;;4316551;33;44768;-87
2021/08/09 08:59:13;;;;;;;;;;;17.10;92.30;;;;;;4316240;33;44123;-84
2021/08/09 09:01:50;;;;;;;;;;;17.10;92.40;;;;;;4327196;33;45871;-87
2021/08/09 09:04:31;;;;;;;;;;;17.10;92.30;;;;;;4327322;33;43806;-82
2021/08/09 09:07:05;;;;;;;;;;;17.20;92.40;;;;;;4327905;33;44887;-85
2021/08/09 09:09:39;;;;;;;;;;;17.20;92.30;;;;;;4303453;33;45790;-83
2021/08/09 09:12:19;;;;;;;;;;;17.20;92.30;;;;;;4303311;33;45038;-87
2021/08/09 09:15:05;;;;;;;;;;;17.20;92.30;;;;;;4316075;33;45796;-81
2021/08/09 09:17:37;;;;;;;;;;;17.20;92.20;;;;;;4327278;33;45914;-83
2021/08/09 09:20:23;;;;;;;;;;;17.20;92.20;;;;;;4316535;33;19999;-83
2021/08/09 09:22:51;;;;;;;;;;;17.20;92.20;;;;;;4327455;33;44134;-84
2021/08/09 09:25:31;;;;;;;;;;;17.30;92.20;;;;;;4315574;33;44428;-91
2021/08/09 09:28:18;;;;;;;;;;;17.30;92.20;;;;;;4316036;33;44262;-81
2021/08/09 09:30:47;;;;;;;;;;;17.30;91.90;;;;;;4315966;33;45039;-83
2021/08/09 09:33:14;;;;;;;;;;;17.30;91.90;;;;;;4302972;33;45701;-82
2021/08/09 09:35:47;;;;;;;;;;;17.40;92.00;;;;;;4326979;33;45795;-87
2021/08/09 09:38:14;;;;;;;;;;;17.40;91.90;;;;;;4303180;33;45996;-85
2021/08/09 09:40:45;;;;;;;;;;;17.40;92.00;;;;;;4326978;33;43771;-85
2021/08/09 09:43:16;;;;;;;;;;;17.40;92.00;;;;;;4302873;33;43840;-85
2021/08/09 09:45:56;;;;;;;;;;;17.40;91.80;;;;;;4326909;33;45754;-85
2021/08/09 09:48:37;;;;;;;;;;;17.50;91.90;;;;;;4303172;33;44126;-86
2021/08/09 09:51:11;;;;;;;;;;;17.40;91.90;;;;;;4327590;33;20046;-82
2021/08/09 09:53:42;;;;;;;;;;;17.50;91.90;;;;;;4302903;33;44228;-86
2021/08/09 09:56:13;;;;;;;;;;;17.50;91.80;;;;;;4302665;33;44818;-88
2021/08/09 09:58:41;;;;;;;;;;;17.50;91.90;;;;;;4302874;33;44191;-82
2021/08/09 10:01:11;;;;;;;;;;;17.50;91.70;;;;;;4315308;33;44310;-84
2021/08/09 10:03:39;;;;;;;;;;;17.60;91.70;;;;;;4287156;33;44435;-83
2021/08/09 10:06:10;;;;;;;;;;;17.60;91.80;;;;;;4286902;33;44022;-82
2021/08/09 10:08:41;;;;;;;;;;;17.60;91.50;;;;;;4297871;33;43478;-86
2021/08/09 10:11:14;;;;;;;;;;;17.70;91.50;;;;;;4273478;33;43818;-84
2021/08/09 10:13:45;;;;;;;;;;;17.70;91.30;;;;;;4286663;33;39205;-84
2021/08/09 10:16:12;;;;;;;;;;;17.60;91.40;;;;;;4288183;33;45252;-84
2021/08/09 10:18:49;;;;;;;;;;;17.70;91.40;;;;;;4301245;33;44062;-85
2021/08/09 10:21:23;;;;;;;;;;;17.60;91.20;;;;;;4302077;33;20045;-86
2021/08/09 10:23:53;;;;;;;;;;;17.70;91.30;;;;;;4287865;33;43334;-90
2021/08/09 10:26:32;;;;;;;;;;;17.70;91.40;;;;;;4311801;33;44300;-87
2021/08/09 10:28:59;;;;;;;;;;;17.70;91.40;;;;;;4312286;33;42661;-86
2021/08/09 10:31:31;;;;;;;;;;;17.70;91.30;;;;;;4314009;33;42781;-87
2021/08/09 10:33:59;;;;;;;;;;;17.70;91.30;;;;;;4291059;33;44236;-88
2021/08/09 10:36:46;;;;;;;;;;;17.80;91.30;;;;;;4290721;33;45985;-86
2021/08/09 10:39:33;;;;;;;;;;;17.80;91.30;;;;;;4290695;33;43483;-83
2021/08/09 10:42:03;;;;;;;;;;;17.80;91.20;;;;;;4303603;33;44923;-89
2021/08/09 10:44:30;;;;;;;;;;;17.80;91.20;;;;;;4303267;33;43965;-81
2021/08/09 10:47:00;;;;;;;;;;;17.80;91.30;;;;;;4314688;33;44119;-83
2021/08/09 10:49:38;;;;;;;;;;;17.80;91.10;;;;;;4303441;33;43279;-82
2021/08/09 10:52:06;;;;;;;;;;;17.80;91.00;;;;;;4314235;33;44231;-84
2021/08/09 10:54:36;;;;;;;;;;;17.80;91.10;;;;;;4314453;33;43904;-81
2021/08/09 10:57:09;;;;;;;;;;;17.80;91.00;;;;;;4290037;33;43333;-82
2021/08/09 10:59:46;;;;;;;;;;;17.80;91.10;;;;;;4314553;33;44094;-87
2021/08/09 11:02:14;;;;;;;;;;;17.80;91.00;;;;;;4309449;33;45486;-83
2021/08/09 11:05:08;;;;;;;;;;;17.80;91.00;;;;;;4305204;33;42762;-84
2021/08/09 11:07:35;;;;;;;;;;;17.80;91.00;;;;;;4300886;33;44824;-83
2021/08/09 11:10:03;;;;;;;;;;;17.80;90.90;;;;;;4329346;33;43267;-83
2021/08/09 11:12:30;;;;;;;;;;;17.80;91.00;;;;;;4304453;33;45674;-86
2021/08/09 11:17:31;;;;;;;;;;;17.80;91.00;;;;;;4317799;33;43741;-87
2021/08/09 11:20:11;;;;;;;;;;;17.80;91.00;;;;;;4328516;33;42870;-84
2021/08/09 11:22:38;;;;;;;;;;;17.80;91.00;;;;;;4329381;33;20040;-84
2021/08/09 11:25:23;;;;;;;;;;;17.80;91.00;;;;;;4328609;33;43444;-87
2021/08/09 11:28:09;;;;;;;;;;;17.90;91.00;;;;;;4328928;33;43622;-90
2021/08/09 11:30:38;;;;;;;;;;;17.90;91.00;;;;;;4328027;33;43567;-86
2021/08/09 11:33:18;;;;;;;;;;;17.90;91.00;;;;;;4317211;33;45374;-85
2021/08/09 11:35:52;;;;;;;;;;;17.90;91.00;;;;;;4328404;33;43198;-84
2021/08/09 11:38:22;;;;;;;;;;;17.90;91.10;;;;;;4317814;33;43906;-84
2021/08/09 11:40:53;;;;;;;;;;;18.00;91.00;;;;;;4328156;33;43260;-85
2021/08/09 11:43:26;;;;;;;;;;;18.00;91.00;;;;;;4304104;33;43405;-89
2021/08/09 11:45:54;;;;;;;;;;;18.10;91.00;;;;;;4304428;33;44734;-87
2021/08/09 11:48:40;;;;;;;;;;;18.10;91.10;;;;;;4303804;33;44850;-84
2021/08/09 11:51:27;;;;;;;;;;;18.10;91.00;;;;;;4329272;33;44259;-84
2021/08/09 11:54:01;;;;;;;;;;;18.20;91.00;;;;;;4305282;33;20402;-82
2021/08/09 11:56:33;;;;;;;;;;;18.20;91.00;;;;;;4328491;33;45260;-86
2021/08/09 11:59:10;;;;;;;;;;;18.20;91.00;;;;;;4317319;33;43480;-87
2021/08/09 12:01:38;;;;;;;;;;;18.30;90.90;;;;;;4328051;33;45180;-82
2021/08/09 12:04:24;;;;;;;;;;;18.30;90.80;;;;;;4303959;33;44430;-84
2021/08/09 12:06:56;;;;;;;;;;;18.20;90.90;;;;;;4317335;33;45350;-88
2021/08/09 12:09:35;;;;;;;;;;;18.30;90.80;;;;;;4304318;33;45238;-86
2021/08/09 12:12:07;;;;;;;;;;;18.30;90.80;;;;;;4317192;33;45901;-86
2021/08/09 12:14:35;;;;;;;;;;;18.30;91.10;;;;;;4304043;33;46112;-83
2021/08/09 12:17:12;;;;;;;;;;;18.30;90.70;;;;;;4327839;33;44781;-85
2021/08/09 12:19:44;;;;;;;;;;;18.30;90.80;;;;;;4316922;33;43137;-87
2021/08/09 12:22:15;;;;;;;;;;;18.30;90.70;;;;;;4328011;33;45003;-87
2021/08/09 12:25:11;;;;;;;;;;;18.30;90.70;;;;;;4317569;33;20002;-89
2021/08/09 12:27:39;;;;;;;;;;;18.30;90.70;;;;;;4301140;33;43517;-83
2021/08/09 12:30:16;;;;;;;;;;;18.30;90.80;;;;;;4316602;33;43513;-85
2021/08/09 12:32:59;;;;;;;;;;;18.30;90.70;;;;;;4327709;33;44398;-85
2021/08/09 12:35:39;;;;;;;;;;;18.30;90.70;;;;;;4303766;33;42221;-84
2021/08/09 12:38:07;;;;;;;;;;;18.40;90.40;;;;;;4327487;33;42450;-84
2021/08/09 12:40:42;;;;;;;;;;;18.40;90.70;;;;;;4303635;33;45128;-85
2021/08/09 12:43:13;;;;;;;;;;;18.40;90.60;;;;;;4304047;33;44161;-84
2021/08/09 12:45:41;;;;;;;;;;;18.50;90.70;;;;;;4316186;33;44795;-82
2021/08/09 12:48:14;;;;;;;;;;;18.50;90.60;;;;;;4316204;33;43902;-84
2021/08/09 12:50:42;;;;;;;;;;;18.50;90.50;;;;;;4327704;33;45603;-83
2021/08/09 12:53:10;;;;;;;;;;;18.50;90.60;;;;;;4303010;33;43430;-82
2021/08/09 12:55:48;;;;;;;;;;;18.50;90.60;;;;;;4303634;33;20481;-84
2021/08/09 12:58:18;;;;;;;;;;;18.50;90.60;;;;;;4303646;33;43955;-89
2021/08/09 13:00:45;;;;;;;;;;;18.50;90.50;;;;;;4327600;33;45681;-86
2021/08/09 13:03:12;;;;;;;;;;;18.50;90.50;;;;;;4303021;33;44147;-87
2021/08/09 13:05:40;;;;;;;;;;;18.50;90.50;;;;;;4316379;33;45967;-85
2021/08/09 13:08:10;;;;;;;;;;;18.50;90.50;;;;;;4326716;33;44178;-88
2021/08/09 13:10:37;;;;;;;;;;;18.50;90.60;;;;;;4316213;33;44480;-85
2021/08/09 13:13:07;;;;;;;;;;;18.50;90.50;;;;;;4326797;33;43485;-81
2021/08/09 13:15:38;;;;;;;;;;;18.50;90.40;;;;;;4316387;33;44532;-84
2021/08/09 13:18:09;;;;;;;;;;;18.50;90.40;;;;;;4315965;33;42337;-85
2021/08/09 13:20:42;;;;;;;;;;;18.50;90.30;;;;;;4316131;33;43330;-83
2021/08/09 13:23:14;;;;;;;;;;;18.50;90.20;;;;;;4327244;33;44250;-87
2021/08/09 13:25:42;;;;;;;;;;;18.50;90.30;;;;;;4304379;33;20018;-82
2021/08/09 13:28:11;;;;;;;;;;;18.50;90.40;;;;;;4315936;33;44158;-83
2021/08/09 13:30:43;;;;;;;;;;;18.60;90.40;;;;;;4327240;33;45603;-85
2021/08/09 13:33:10;;;;;;;;;;;18.60;90.30;;;;;;4303081;33;44542;-87
2021/08/09 13:35:37;;;;;;;;;;;18.60;90.40;;;;;;4326696;33;42708;-88
2021/08/09 13:38:05;;;;;;;;;;;18.60;90.50;;;;;;4316168;33;42963;-82
2021/08/09 13:40:38;;;;;;;;;;;18.60;90.40;;;;;;4326696;33;43982;-85
2021/08/09 13:43:08;;;;;;;;;;;18.70;90.60;;;;;;4326753;33;45137;-84
2021/08/09 13:45:36;;;;;;;;;;;18.70;90.60;;;;;;4326747;33;44358;-89
2021/08/09 13:48:06;;;;;;;;;;;18.80;90.50;;;;;;4316076;33;43197;-85
2021/08/09 13:50:33;;;;;;;;;;;18.80;90.50;;;;;;4326858;33;42741;-86
2021/08/09 13:53:01;;;;;;;;;;;18.90;90.40;;;;;;4316053;33;44259;-82
2021/08/09 13:55:28;;;;;;;;;;;18.90;90.40;;;;;;4316150;33;44307;-88
2021/08/09 13:57:58;;;;;;;;;;;18.90;90.30;;;;;;4327761;33;20036;-83
2021/08/09 14:00:28;;;;;;;;;;;18.90;90.30;;;;;;4303233;33;43068;-85
2021/08/09 14:02:58;;;;;;;;;;;18.90;90.40;;;;;;4326586;33;45702;-88
2021/08/09 14:05:25;;;;;;;;;;;18.90;90.20;;;;;;4303977;33;45013;-84
2021/08/09 14:07:52;;;;;;;;;;;19.00;90.30;;;;;;4329658;33;42854;-82
2021/08/09 14:10:25;;;;;;;;;;;18.90;90.30;;;;;;4318357;33;43343;-82
2021/08/09 14:12:55;;;;;;;;;;;18.90;90.30;;;;;;4305547;33;44115;-82
2021/08/09 14:15:22;;;;;;;;;;;18.90;90.50;;;;;;4329800;33;43749;-86
2021/08/09 14:17:49;;;;;;;;;;;18.90;90.70;;;;;;4305257;33;44415;-85
2021/08/09 14:20:16;;;;;;;;;;;18.90;90.80;;;;;;4329768;33;44150;-84
2021/08/09 14:22:43;;;;;;;;;;;19.00;90.90;;;;;;4318518;33;44022;-86
2021/08/09 14:25:12;;;;;;;;;;;19.00;90.90;;;;;;4329619;33;44561;-90
2021/08/09 14:27:39;;;;;;;;;;;19.00;91.00;;;;;;4318709;33;44459;-83
2021/08/09 14:30:08;;;;;;;;;;;19.00;90.90;;;;;;4318028;33;42919;-86
2021/08/09 14:32:37;;;;;;;;;;;19.00;91.00;;;;;;4318496;33;43951;-87
2021/08/09 14:35:16;;;;;;;;;;;19.00;91.00;;;;;;4318869;33;43909;-87
2021/08/09 14:37:46;;;;;;;;;;;19.00;91.00;;;;;;4305472;33;44257;-88
2021/08/09 14:40:14;;;;;;;;;;;19.00;90.90;;;;;;4318489;33;45886;-84
2021/08/09 14:42:42;;;;;;;;;;;19.00;90.80;;;;;;4318392;33;43777;-90
2021/08/09 14:45:17;;;;;;;;;;;19.00;90.80;;;;;;4305900;33;43386;-88
2021/08/09 14:47:53;;;;;;;;;;;19.00;90.70;;;;;;4328375;33;42568;-85